sensor_id;sensor_type;location;lat;lon;timestamp;P1;durP1;ratioP1;P2;durP2;ratioP2
23561;SDS011;11959;49.418;8.728;2022-07-03T00:01:30;3.20;;;1.92;;
23561;SDS011;11959;49.418;8.728;2022-07-03T00:03:56;1.85;;;1.63;;
23561;SDS011;11959;49.418;8.728;2022-07-03T00:06:22;1.95;;;1.60;;
23561;SDS011;11959;49.418;8.728;2022-07-03T00:08:48;2.00;;;1.80;;
23561;SDS011;11959;49.418;8.728;2022-07-03T00:11:14;2.25;;;1.80;;
23561;SDS011;11959;49.418;8.728;2022-07-03T00:13:40;4.95;;;1.85;;
23561;SDS011;11959;49.418;8.728;2022-07-03T00:16:06;3.55;;;1.60;;
23561;SDS011;11959;49.418;8.728;2022-07-03T00:18:31;2.85;;;1.48;;
23561;SDS011;11959;49.418;8.728;2022-07-03T00:21:01;3.08;;;1.50;;
23561;SDS011;11959;49.418;8.728;2022-07-03T00:24:19;3.03;;;1.85;;
23561;SDS011;11959;49.418;8.728;2022-07-03T00:26:26;3.05;;;1.92;;
23561;SDS011;11959;49.418;8.728;2022-07-03T00:28:55;4.63;;;1.85;;
23561;SDS011;11959;49.418;8.728;2022-07-03T00:31:23;4.22;;;1.90;;
23561;SDS011;11959;49.418;8.728;2022-07-03T00:33:50;2.03;;;1.70;;
23561;SDS011;11959;49.418;8.728;2022-07-03T00:36:18;2.33;;;1.90;;
23561;SDS011;11959;49.418;8.728;2022-07-03T00:38:44;4.20;;;1.60;;
23561;SDS011;11959;49.418;8.728;2022-07-03T00:41:16;4.00;;;2.00;;
23561;SDS011;11959;49.418;8.728;2022-07-03T00:43:52;3.13;;;2.05;;
23561;SDS011;11959;49.418;8.728;2022-07-03T00:46:18;3.80;;;1.98;;
23561;SDS011;11959;49.418;8.728;2022-07-03T00:48:48;3.70;;;1.85;;
23561;SDS011;11959;49.418;8.728;2022-07-03T00:51:15;2.50;;;1.75;;
23561;SDS011;11959;49.418;8.728;2022-07-03T00:53:55;2.10;;;1.90;;
23561;SDS011;11959;49.418;8.728;2022-07-03T00:56:24;2.15;;;1.90;;
23561;SDS011;11959;49.418;8.728;2022-07-03T00:58:52;5.10;;;1.98;;
23561;SDS011;11959;49.418;8.728;2022-07-03T01:01:19;1.92;;;1.67;;
23561;SDS011;11959;49.418;8.728;2022-07-03T01:03:46;6.03;;;2.10;;
23561;SDS011;11959;49.418;8.728;2022-07-03T01:06:19;3.38;;;2.10;;
23561;SDS011;11959;49.418;8.728;2022-07-03T01:08:49;3.65;;;1.85;;
23561;SDS011;11959;49.418;8.728;2022-07-03T01:11:26;5.80;;;2.03;;
23561;SDS011;11959;49.418;8.728;2022-07-03T01:16:57;2.03;;;1.63;;
23561;SDS011;11959;49.418;8.728;2022-07-03T01:19:39;2.55;;;1.65;;
23561;SDS011;11959;49.418;8.728;2022-07-03T01:27:35;2.50;;;1.75;;
23561;SDS011;11959;49.418;8.728;2022-07-03T01:30:11;2.30;;;1.90;;
23561;SDS011;11959;49.418;8.728;2022-07-03T01:32:38;4.18;;;1.85;;
23561;SDS011;11959;49.418;8.728;2022-07-03T01:35:05;2.60;;;2.00;;
23561;SDS011;11959;49.418;8.728;2022-07-03T01:37:34;2.72;;;1.75;;
23561;SDS011;11959;49.418;8.728;2022-07-03T01:40:02;3.00;;;2.28;;
23561;SDS011;11959;49.418;8.728;2022-07-03T01:42:29;3.08;;;1.70;;
23561;SDS011;11959;49.418;8.728;2022-07-03T01:44:59;2.90;;;1.88;;
23561;SDS011;11959;49.418;8.728;2022-07-03T01:47:25;2.97;;;1.98;;
23561;SDS011;11959;49.418;8.728;2022-07-03T01:49:52;2.58;;;2.10;;
23561;SDS011;11959;49.418;8.728;2022-07-03T01:52:22;3.50;;;1.88;;
23561;SDS011;11959;49.418;8.728;2022-07-03T01:54:47;2.10;;;1.90;;
23561;SDS011;11959;49.418;8.728;2022-07-03T01:57:14;2.00;;;1.80;;
23561;SDS011;11959;49.418;8.728;2022-07-03T01:59:40;2.05;;;1.85;;
23561;SDS011;11959;49.418;8.728;2022-07-03T02:02:14;2.67;;;1.90;;
23561;SDS011;11959;49.418;8.728;2022-07-03T02:04:51;3.65;;;2.05;;
23561;SDS011;11959;49.418;8.728;2022-07-03T02:10:10;2.47;;;1.77;;
23561;SDS011;11959;49.418;8.728;2022-07-03T02:12:49;3.05;;;2.10;;
23561;SDS011;11959;49.418;8.728;2022-07-03T02:15:18;1.98;;;1.65;;
23561;SDS011;11959;49.418;8.728;2022-07-03T02:17:53;2.22;;;1.67;;
23561;SDS011;11959;49.418;8.728;2022-07-03T02:20:21;3.58;;;1.92;;
23561;SDS011;11959;49.418;8.728;2022-07-03T02:23:07;2.85;;;2.08;;
23561;SDS011;11959;49.418;8.728;2022-07-03T02:25:35;2.55;;;1.80;;
23561;SDS011;11959;49.418;8.728;2022-07-03T02:30:51;2.83;;;1.80;;
23561;SDS011;11959;49.418;8.728;2022-07-03T02:33:21;2.47;;;1.88;;
23561;SDS011;11959;49.418;8.728;2022-07-03T02:35:50;3.63;;;1.73;;
23561;SDS011;11959;49.418;8.728;2022-07-03T02:38:20;2.40;;;1.80;;
23561;SDS011;11959;49.418;8.728;2022-07-03T02:43:41;3.67;;;1.77;;
23561;SDS011;11959;49.418;8.728;2022-07-03T02:49:20;3.53;;;1.88;;
23561;SDS011;11959;49.418;8.728;2022-07-03T02:52:24;2.70;;;1.90;;
23561;SDS011;11959;49.418;8.728;2022-07-03T02:54:47;2.72;;;1.83;;
23561;SDS011;11959;49.418;8.728;2022-07-03T02:57:14;2.85;;;1.98;;
23561;SDS011;11959;49.418;8.728;2022-07-03T03:04:57;2.28;;;1.92;;
23561;SDS011;11959;49.418;8.728;2022-07-03T03:07:29;2.03;;;1.83;;
23561;SDS011;11959;49.418;8.728;2022-07-03T03:10:00;3.88;;;2.17;;
23561;SDS011;11959;49.418;8.728;2022-07-03T03:12:29;3.22;;;1.83;;
23561;SDS011;11959;49.418;8.728;2022-07-03T03:15:01;2.45;;;1.80;;
23561;SDS011;11959;49.418;8.728;2022-07-03T03:18:02;3.85;;;2.33;;
23561;SDS011;11959;49.418;8.728;2022-07-03T03:20:22;2.08;;;1.88;;
23561;SDS011;11959;49.418;8.728;2022-07-03T03:23:06;2.83;;;1.95;;
23561;SDS011;11959;49.418;8.728;2022-07-03T03:25:43;3.85;;;1.85;;
23561;SDS011;11959;49.418;8.728;2022-07-03T03:28:10;5.78;;;2.38;;
23561;SDS011;11959;49.418;8.728;2022-07-03T03:30:35;3.17;;;1.92;;
23561;SDS011;11959;49.418;8.728;2022-07-03T03:33:01;2.40;;;1.67;;
23561;SDS011;11959;49.418;8.728;2022-07-03T03:35:28;2.13;;;1.83;;
23561;SDS011;11959;49.418;8.728;2022-07-03T03:37:54;2.10;;;1.90;;
23561;SDS011;11959;49.418;8.728;2022-07-03T03:40:19;2.10;;;1.90;;
23561;SDS011;11959;49.418;8.728;2022-07-03T03:42:45;2.35;;;2.13;;
23561;SDS011;11959;49.418;8.728;2022-07-03T03:45:11;2.67;;;2.00;;
23561;SDS011;11959;49.418;8.728;2022-07-03T03:47:36;2.33;;;1.88;;
23561;SDS011;11959;49.418;8.728;2022-07-03T03:50:02;2.42;;;2.22;;
23561;SDS011;11959;49.418;8.728;2022-07-03T03:52:29;3.13;;;1.92;;
23561;SDS011;11959;49.418;8.728;2022-07-03T03:54:55;2.85;;;1.88;;
23561;SDS011;11959;49.418;8.728;2022-07-03T03:57:21;3.35;;;2.15;;
23561;SDS011;11959;49.418;8.728;2022-07-03T03:59:48;2.50;;;2.20;;
23561;SDS011;11959;49.418;8.728;2022-07-03T04:02:14;2.20;;;2.00;;
23561;SDS011;11959;49.418;8.728;2022-07-03T04:04:40;3.25;;;2.30;;
23561;SDS011;11959;49.418;8.728;2022-07-03T04:07:06;4.55;;;2.15;;
23561;SDS011;11959;49.418;8.728;2022-07-03T04:09:32;3.05;;;2.22;;
23561;SDS011;11959;49.418;8.728;2022-07-03T04:11:58;2.15;;;1.80;;
23561;SDS011;11959;49.418;8.728;2022-07-03T04:14:24;2.78;;;2.30;;
23561;SDS011;11959;49.418;8.728;2022-07-03T04:16:49;3.60;;;2.28;;
23561;SDS011;11959;49.418;8.728;2022-07-03T04:19:15;3.45;;;1.85;;
23561;SDS011;11959;49.418;8.728;2022-07-03T04:21:41;3.40;;;2.05;;
23561;SDS011;11959;49.418;8.728;2022-07-03T04:24:06;3.50;;;2.30;;
23561;SDS011;11959;49.418;8.728;2022-07-03T04:26:32;4.07;;;1.90;;
23561;SDS011;11959;49.418;8.728;2022-07-03T04:28:58;2.35;;;2.10;;
23561;SDS011;11959;49.418;8.728;2022-07-03T04:31:23;2.38;;;1.80;;
23561;SDS011;11959;49.418;8.728;2022-07-03T04:33:49;2.40;;;1.92;;
23561;SDS011;11959;49.418;8.728;2022-07-03T04:36:15;2.67;;;2.03;;
23561;SDS011;11959;49.418;8.728;2022-07-03T04:38:41;3.17;;;2.08;;
23561;SDS011;11959;49.418;8.728;2022-07-03T04:41:07;2.58;;;2.00;;
23561;SDS011;11959;49.418;8.728;2022-07-03T04:43:34;2.72;;;1.95;;
23561;SDS011;11959;49.418;8.728;2022-07-03T04:45:59;2.78;;;2.20;;
23561;SDS011;11959;49.418;8.728;2022-07-03T04:48:27;2.08;;;1.88;;
23561;SDS011;11959;49.418;8.728;2022-07-03T04:50:53;2.25;;;2.00;;
23561;SDS011;11959;49.418;8.728;2022-07-03T04:53:19;4.68;;;2.30;;
23561;SDS011;11959;49.418;8.728;2022-07-03T04:55:45;2.80;;;1.73;;
23561;SDS011;11959;49.418;8.728;2022-07-03T04:58:11;3.50;;;1.90;;
23561;SDS011;11959;49.418;8.728;2022-07-03T05:00:36;2.20;;;1.80;;
23561;SDS011;11959;49.418;8.728;2022-07-03T05:03:02;2.05;;;1.60;;
23561;SDS011;11959;49.418;8.728;2022-07-03T05:05:28;2.65;;;2.05;;
23561;SDS011;11959;49.418;8.728;2022-07-03T05:07:54;3.10;;;2.03;;
23561;SDS011;11959;49.418;8.728;2022-07-03T05:10:19;2.65;;;2.00;;
23561;SDS011;11959;49.418;8.728;2022-07-03T05:12:45;3.92;;;1.80;;
23561;SDS011;11959;49.418;8.728;2022-07-03T05:15:11;2.30;;;1.98;;
23561;SDS011;11959;49.418;8.728;2022-07-03T05:17:37;6.50;;;2.35;;
23561;SDS011;11959;49.418;8.728;2022-07-03T05:20:05;2.25;;;1.70;;
23561;SDS011;11959;49.418;8.728;2022-07-03T05:22:56;2.42;;;2.00;;
23561;SDS011;11959;49.418;8.728;2022-07-03T05:25:23;3.13;;;1.90;;
23561;SDS011;11959;49.418;8.728;2022-07-03T05:27:50;2.72;;;1.98;;
23561;SDS011;11959;49.418;8.728;2022-07-03T05:30:18;2.28;;;2.08;;
23561;SDS011;11959;49.418;8.728;2022-07-03T05:32:44;2.15;;;1.90;;
23561;SDS011;11959;49.418;8.728;2022-07-03T05:35:10;2.35;;;1.70;;
23561;SDS011;11959;49.418;8.728;2022-07-03T05:37:36;3.33;;;2.05;;
23561;SDS011;11959;49.418;8.728;2022-07-03T05:40:03;2.30;;;1.67;;
23561;SDS011;11959;49.418;8.728;2022-07-03T05:42:29;2.58;;;1.75;;
23561;SDS011;11959;49.418;8.728;2022-07-03T05:44:55;2.78;;;1.75;;
23561;SDS011;11959;49.418;8.728;2022-07-03T05:47:21;2.38;;;1.75;;
23561;SDS011;11959;49.418;8.728;2022-07-03T05:49:46;2.63;;;1.85;;
23561;SDS011;11959;49.418;8.728;2022-07-03T05:52:12;2.72;;;1.90;;
23561;SDS011;11959;49.418;8.728;2022-07-03T05:54:38;3.50;;;1.90;;
23561;SDS011;11959;49.418;8.728;2022-07-03T05:57:04;2.72;;;1.80;;
23561;SDS011;11959;49.418;8.728;2022-07-03T05:59:30;2.78;;;1.85;;
23561;SDS011;11959;49.418;8.728;2022-07-03T06:01:56;2.90;;;1.80;;
23561;SDS011;11959;49.418;8.728;2022-07-03T06:04:22;2.05;;;1.73;;
23561;SDS011;11959;49.418;8.728;2022-07-03T06:06:47;2.83;;;1.83;;
23561;SDS011;11959;49.418;8.728;2022-07-03T06:09:13;2.45;;;1.70;;
23561;SDS011;11959;49.418;8.728;2022-07-03T06:11:38;3.88;;;1.85;;
23561;SDS011;11959;49.418;8.728;2022-07-03T06:14:04;2.13;;;1.67;;
23561;SDS011;11959;49.418;8.728;2022-07-03T06:16:30;1.60;;;1.50;;
23561;SDS011;11959;49.418;8.728;2022-07-03T06:18:55;2.33;;;1.60;;
23561;SDS011;11959;49.418;8.728;2022-07-03T06:21:21;2.13;;;1.85;;
23561;SDS011;11959;49.418;8.728;2022-07-03T06:23:47;2.13;;;1.50;;
23561;SDS011;11959;49.418;8.728;2022-07-03T06:26:16;2.80;;;1.60;;
23561;SDS011;11959;49.418;8.728;2022-07-03T06:28:41;2.70;;;1.80;;
23561;SDS011;11959;49.418;8.728;2022-07-03T06:31:08;2.40;;;1.60;;
23561;SDS011;11959;49.418;8.728;2022-07-03T06:33:33;2.22;;;1.65;;
23561;SDS011;11959;49.418;8.728;2022-07-03T06:35:59;4.38;;;1.90;;
23561;SDS011;11959;49.418;8.728;2022-07-03T06:38:25;1.73;;;1.63;;
23561;SDS011;11959;49.418;8.728;2022-07-03T06:40:50;2.70;;;1.95;;
23561;SDS011;11959;49.418;8.728;2022-07-03T06:43:16;2.55;;;1.70;;
23561;SDS011;11959;49.418;8.728;2022-07-03T06:45:42;3.00;;;1.73;;
23561;SDS011;11959;49.418;8.728;2022-07-03T06:48:08;2.15;;;1.40;;
23561;SDS011;11959;49.418;8.728;2022-07-03T06:50:34;2.45;;;1.70;;
23561;SDS011;11959;49.418;8.728;2022-07-03T06:52:59;2.65;;;1.77;;
23561;SDS011;11959;49.418;8.728;2022-07-03T06:55:26;3.60;;;1.95;;
23561;SDS011;11959;49.418;8.728;2022-07-03T06:57:52;3.00;;;1.50;;
23561;SDS011;11959;49.418;8.728;2022-07-03T07:00:17;2.08;;;1.77;;
23561;SDS011;11959;49.418;8.728;2022-07-03T07:02:43;2.47;;;1.70;;
23561;SDS011;11959;49.418;8.728;2022-07-03T07:05:09;2.15;;;1.80;;
23561;SDS011;11959;49.418;8.728;2022-07-03T07:07:35;3.92;;;1.70;;
23561;SDS011;11959;49.418;8.728;2022-07-03T07:10:00;1.83;;;1.70;;
23561;SDS011;11959;49.418;8.728;2022-07-03T07:12:27;3.30;;;1.75;;
23561;SDS011;11959;49.418;8.728;2022-07-03T07:14:52;2.38;;;1.55;;
23561;SDS011;11959;49.418;8.728;2022-07-03T07:17:18;3.15;;;1.67;;
23561;SDS011;11959;49.418;8.728;2022-07-03T07:19:43;2.58;;;1.70;;
23561;SDS011;11959;49.418;8.728;2022-07-03T07:22:09;1.70;;;1.52;;
23561;SDS011;11959;49.418;8.728;2022-07-03T07:24:35;2.10;;;1.58;;
23561;SDS011;11959;49.418;8.728;2022-07-03T07:27:00;3.22;;;1.65;;
23561;SDS011;11959;49.418;8.728;2022-07-03T07:29:27;2.03;;;1.50;;
23561;SDS011;11959;49.418;8.728;2022-07-03T07:31:53;2.97;;;1.70;;
23561;SDS011;11959;49.418;8.728;2022-07-03T07:34:19;2.63;;;1.50;;
23561;SDS011;11959;49.418;8.728;2022-07-03T07:36:44;2.25;;;1.45;;
23561;SDS011;11959;49.418;8.728;2022-07-03T07:39:10;3.50;;;2.10;;
23561;SDS011;11959;49.418;8.728;2022-07-03T07:41:36;3.17;;;1.80;;
23561;SDS011;11959;49.418;8.728;2022-07-03T07:44:03;3.08;;;2.20;;
23561;SDS011;11959;49.418;8.728;2022-07-03T07:46:29;2.38;;;1.80;;
23561;SDS011;11959;49.418;8.728;2022-07-03T07:48:55;3.50;;;1.67;;
23561;SDS011;11959;49.418;8.728;2022-07-03T07:51:20;1.45;;;1.35;;
23561;SDS011;11959;49.418;8.728;2022-07-03T07:53:46;3.78;;;1.88;;
23561;SDS011;11959;49.418;8.728;2022-07-03T07:56:12;2.28;;;1.50;;
23561;SDS011;11959;49.418;8.728;2022-07-03T07:58:37;2.38;;;1.50;;
23561;SDS011;11959;49.418;8.728;2022-07-03T08:01:03;1.88;;;1.50;;
23561;SDS011;11959;49.418;8.728;2022-07-03T08:03:47;1.60;;;1.40;;
23561;SDS011;11959;49.418;8.728;2022-07-03T08:06:31;2.55;;;1.60;;
23561;SDS011;11959;49.418;8.728;2022-07-03T08:08:56;3.05;;;1.50;;
23561;SDS011;11959;49.418;8.728;2022-07-03T08:11:22;3.28;;;1.40;;
23561;SDS011;11959;49.418;8.728;2022-07-03T08:13:47;2.85;;;1.48;;
23561;SDS011;11959;49.418;8.728;2022-07-03T08:16:13;2.70;;;1.58;;
23561;SDS011;11959;49.418;8.728;2022-07-03T08:18:39;1.88;;;1.50;;
23561;SDS011;11959;49.418;8.728;2022-07-03T08:21:05;2.65;;;1.45;;
23561;SDS011;11959;49.418;8.728;2022-07-03T08:23:31;4.60;;;1.38;;
23561;SDS011;11959;49.418;8.728;2022-07-03T08:25:56;2.65;;;1.58;;
23561;SDS011;11959;49.418;8.728;2022-07-03T08:28:22;2.20;;;1.48;;
23561;SDS011;11959;49.418;8.728;2022-07-03T08:30:48;2.97;;;1.27;;
23561;SDS011;11959;49.418;8.728;2022-07-03T08:33:13;2.22;;;1.33;;
23561;SDS011;11959;49.418;8.728;2022-07-03T08:35:39;1.75;;;1.25;;
23561;SDS011;11959;49.418;8.728;2022-07-03T08:38:05;1.95;;;1.20;;
23561;SDS011;11959;49.418;8.728;2022-07-03T08:40:31;1.40;;;1.30;;
23561;SDS011;11959;49.418;8.728;2022-07-03T08:42:57;1.80;;;1.20;;
23561;SDS011;11959;49.418;8.728;2022-07-03T08:45:26;2.75;;;1.15;;
23561;SDS011;11959;49.418;8.728;2022-07-03T08:47:56;1.92;;;1.30;;
23561;SDS011;11959;49.418;8.728;2022-07-03T08:50:23;3.88;;;1.33;;
23561;SDS011;11959;49.418;8.728;2022-07-03T08:52:50;1.65;;;1.20;;
23561;SDS011;11959;49.418;8.728;2022-07-03T08:55:16;3.60;;;1.25;;
23561;SDS011;11959;49.418;8.728;2022-07-03T08:57:44;1.50;;;1.20;;
23561;SDS011;11959;49.418;8.728;2022-07-03T09:00:15;1.30;;;1.20;;
23561;SDS011;11959;49.418;8.728;2022-07-03T09:02:42;2.65;;;1.17;;
23561;SDS011;11959;49.418;8.728;2022-07-03T09:05:12;1.58;;;1.10;;
23561;SDS011;11959;49.418;8.728;2022-07-03T09:07:39;1.73;;;1.10;;
23561;SDS011;11959;49.418;8.728;2022-07-03T09:10:07;2.72;;;1.13;;
23561;SDS011;11959;49.418;8.728;2022-07-03T09:12:37;2.95;;;1.05;;
23561;SDS011;11959;49.418;8.728;2022-07-03T09:15:03;2.58;;;1.15;;
23561;SDS011;11959;49.418;8.728;2022-07-03T09:17:30;2.42;;;1.00;;
23561;SDS011;11959;49.418;8.728;2022-07-03T09:20:04;1.60;;;1.25;;
23561;SDS011;11959;49.418;8.728;2022-07-03T09:22:32;3.03;;;1.20;;
23561;SDS011;11959;49.418;8.728;2022-07-03T09:25:09;2.50;;;1.25;;
23561;SDS011;11959;49.418;8.728;2022-07-03T09:27:37;1.52;;;1.10;;
23561;SDS011;11959;49.418;8.728;2022-07-03T09:30:13;1.77;;;1.00;;
23561;SDS011;11959;49.418;8.728;2022-07-03T09:32:45;2.38;;;1.00;;
23561;SDS011;11959;49.418;8.728;2022-07-03T09:35:17;2.38;;;1.00;;
23561;SDS011;11959;49.418;8.728;2022-07-03T09:37:54;2.72;;;1.13;;
23561;SDS011;11959;49.418;8.728;2022-07-03T09:40:46;3.25;;;0.80;;
23561;SDS011;11959;49.418;8.728;2022-07-03T09:43:24;1.20;;;0.90;;
23561;SDS011;11959;49.418;8.728;2022-07-03T09:48:27;1.58;;;0.85;;
23561;SDS011;11959;49.418;8.728;2022-07-03T09:56:21;3.03;;;0.88;;
23561;SDS011;11959;49.418;8.728;2022-07-03T09:59:11;3.60;;;0.90;;
23561;SDS011;11959;49.418;8.728;2022-07-03T10:01:39;1.45;;;0.90;;
23561;SDS011;11959;49.418;8.728;2022-07-03T10:06:45;0.95;;;0.63;;
23561;SDS011;11959;49.418;8.728;2022-07-03T10:09:20;2.08;;;1.00;;
23561;SDS011;11959;49.418;8.728;2022-07-03T10:11:50;1.55;;;1.00;;
23561;SDS011;11959;49.418;8.728;2022-07-03T10:14:20;1.30;;;1.10;;
23561;SDS011;11959;49.418;8.728;2022-07-03T10:16:47;2.58;;;0.98;;
23561;SDS011;11959;49.418;8.728;2022-07-03T10:19:15;3.05;;;0.90;;
23561;SDS011;11959;49.418;8.728;2022-07-03T10:21:51;1.48;;;1.00;;
23561;SDS011;11959;49.418;8.728;2022-07-03T10:24:19;2.75;;;1.02;;
23561;SDS011;11959;49.418;8.728;2022-07-03T10:26:47;4.20;;;1.05;;
23561;SDS011;11959;49.418;8.728;2022-07-03T10:29:14;2.80;;;1.25;;
23561;SDS011;11959;49.418;8.728;2022-07-03T10:31:44;2.42;;;1.05;;
23561;SDS011;11959;49.418;8.728;2022-07-03T10:36:44;4.93;;;1.08;;
23561;SDS011;11959;49.418;8.728;2022-07-03T10:39:14;2.45;;;1.10;;
23561;SDS011;11959;49.418;8.728;2022-07-03T10:41:55;1.27;;;0.93;;
23561;SDS011;11959;49.418;8.728;2022-07-03T10:45:00;2.47;;;0.90;;
23561;SDS011;11959;49.418;8.728;2022-07-03T10:47:42;1.30;;;0.73;;
23561;SDS011;11959;49.418;8.728;2022-07-03T10:50:09;1.25;;;0.90;;
23561;SDS011;11959;49.418;8.728;2022-07-03T10:52:43;3.97;;;0.90;;
23561;SDS011;11959;49.418;8.728;2022-07-03T10:55:09;4.00;;;1.00;;
23561;SDS011;11959;49.418;8.728;2022-07-03T10:57:37;1.33;;;0.85;;
23561;SDS011;11959;49.418;8.728;2022-07-03T11:02:45;1.08;;;0.88;;
23561;SDS011;11959;49.418;8.728;2022-07-03T11:05:16;2.15;;;0.85;;
23561;SDS011;11959;49.418;8.728;2022-07-03T11:25:54;2.13;;;0.80;;
23561;SDS011;11959;49.418;8.728;2022-07-03T11:36:11;1.48;;;0.63;;
23561;SDS011;11959;49.418;8.728;2022-07-03T11:43:52;1.02;;;0.75;;
23561;SDS011;11959;49.418;8.728;2022-07-03T11:46:23;2.20;;;0.80;;
23561;SDS011;11959;49.418;8.728;2022-07-03T11:49:08;1.33;;;0.80;;
23561;SDS011;11959;49.418;8.728;2022-07-03T11:51:40;1.77;;;0.80;;
23561;SDS011;11959;49.418;8.728;2022-07-03T11:54:07;1.38;;;0.70;;
23561;SDS011;11959;49.418;8.728;2022-07-03T11:56:33;1.70;;;0.80;;
23561;SDS011;11959;49.418;8.728;2022-07-03T11:59:02;2.30;;;1.00;;
23561;SDS011;11959;49.418;8.728;2022-07-03T12:01:36;1.25;;;0.80;;
23561;SDS011;11959;49.418;8.728;2022-07-03T12:06:40;1.33;;;0.80;;
23561;SDS011;11959;49.418;8.728;2022-07-03T12:09:22;2.55;;;0.90;;
23561;SDS011;11959;49.418;8.728;2022-07-03T12:11:52;3.17;;;1.00;;
23561;SDS011;11959;49.418;8.728;2022-07-03T12:17:21;2.25;;;0.88;;
23561;SDS011;11959;49.418;8.728;2022-07-03T12:22:36;1.27;;;0.90;;
23561;SDS011;11959;49.418;8.728;2022-07-03T12:25:06;1.00;;;0.80;;
23561;SDS011;11959;49.418;8.728;2022-07-03T12:27:40;1.77;;;0.75;;
23561;SDS011;11959;49.418;8.728;2022-07-03T12:30:08;1.55;;;0.70;;
23561;SDS011;11959;49.418;8.728;2022-07-03T12:32:37;2.88;;;0.80;;
23561;SDS011;11959;49.418;8.728;2022-07-03T12:35:03;1.83;;;0.80;;
23561;SDS011;11959;49.418;8.728;2022-07-03T12:39:59;3.70;;;1.73;;
23561;SDS011;11959;49.418;8.728;2022-07-03T12:42:25;3.40;;;1.50;;
23561;SDS011;11959;49.418;8.728;2022-07-03T12:44:57;5.68;;;1.75;;
23561;SDS011;11959;49.418;8.728;2022-07-03T12:47:24;2.50;;;1.10;;
23561;SDS011;11959;49.418;8.728;2022-07-03T12:49:57;8.65;;;2.40;;
23561;SDS011;11959;49.418;8.728;2022-07-03T12:52:25;5.50;;;2.65;;
23561;SDS011;11959;49.418;8.728;2022-07-03T12:54:51;3.33;;;1.65;;
23561;SDS011;11959;49.418;8.728;2022-07-03T12:57:17;1.02;;;0.60;;
23561;SDS011;11959;49.418;8.728;2022-07-03T13:00:03;1.55;;;0.80;;
23561;SDS011;11959;49.418;8.728;2022-07-03T13:02:36;4.07;;;0.80;;
23561;SDS011;11959;49.418;8.728;2022-07-03T13:05:17;1.20;;;0.80;;
23561;SDS011;11959;49.418;8.728;2022-07-03T13:07:48;2.20;;;0.98;;
23561;SDS011;11959;49.418;8.728;2022-07-03T13:10:15;1.70;;;0.73;;
23561;SDS011;11959;49.418;8.728;2022-07-03T13:12:46;1.75;;;0.80;;
23561;SDS011;11959;49.418;8.728;2022-07-03T13:15:13;1.30;;;0.70;;
23561;SDS011;11959;49.418;8.728;2022-07-03T13:20:25;1.52;;;0.60;;
23561;SDS011;11959;49.418;8.728;2022-07-03T13:22:51;1.75;;;0.88;;
23561;SDS011;11959;49.418;8.728;2022-07-03T13:25:20;0.90;;;0.60;;
23561;SDS011;11959;49.418;8.728;2022-07-03T13:27:46;3.28;;;1.00;;
23561;SDS011;11959;49.418;8.728;2022-07-03T13:30:13;1.63;;;0.90;;
23561;SDS011;11959;49.418;8.728;2022-07-03T13:32:43;3.50;;;0.52;;
23561;SDS011;11959;49.418;8.728;2022-07-03T13:35:09;3.42;;;0.90;;
23561;SDS011;11959;49.418;8.728;2022-07-03T13:37:35;1.88;;;0.75;;
23561;SDS011;11959;49.418;8.728;2022-07-03T13:40:02;3.20;;;1.15;;
23561;SDS011;11959;49.418;8.728;2022-07-03T13:42:29;2.17;;;0.98;;
23561;SDS011;11959;49.418;8.728;2022-07-03T13:44:55;6.40;;;2.42;;
23561;SDS011;11959;49.418;8.728;2022-07-03T13:47:20;7.45;;;2.70;;
23561;SDS011;11959;49.418;8.728;2022-07-03T13:49:46;2.72;;;1.10;;
23561;SDS011;11959;49.418;8.728;2022-07-03T13:52:12;2.47;;;0.90;;
23561;SDS011;11959;49.418;8.728;2022-07-03T13:54:38;1.42;;;0.75;;
23561;SDS011;11959;49.418;8.728;2022-07-03T13:57:03;1.55;;;0.80;;
23561;SDS011;11959;49.418;8.728;2022-07-03T13:59:30;0.75;;;0.73;;
23561;SDS011;11959;49.418;8.728;2022-07-03T14:01:56;1.73;;;0.77;;
23561;SDS011;11959;49.418;8.728;2022-07-03T14:04:22;1.55;;;0.70;;
23561;SDS011;11959;49.418;8.728;2022-07-03T14:06:48;0.98;;;0.60;;
23561;SDS011;11959;49.418;8.728;2022-07-03T14:09:13;1.65;;;0.70;;
23561;SDS011;11959;49.418;8.728;2022-07-03T14:11:39;1.25;;;0.77;;
23561;SDS011;11959;49.418;8.728;2022-07-03T14:14:05;2.35;;;0.90;;
23561;SDS011;11959;49.418;8.728;2022-07-03T14:16:31;2.05;;;0.80;;
23561;SDS011;11959;49.418;8.728;2022-07-03T14:18:56;3.40;;;1.63;;
23561;SDS011;11959;49.418;8.728;2022-07-03T14:21:22;3.65;;;1.13;;
23561;SDS011;11959;49.418;8.728;2022-07-03T14:23:48;2.05;;;0.80;;
23561;SDS011;11959;49.418;8.728;2022-07-03T14:26:13;1.48;;;0.73;;
23561;SDS011;11959;49.418;8.728;2022-07-03T14:28:39;3.85;;;1.70;;
23561;SDS011;11959;49.418;8.728;2022-07-03T14:31:23;2.85;;;1.17;;
23561;SDS011;11959;49.418;8.728;2022-07-03T14:33:49;3.47;;;0.75;;
23561;SDS011;11959;49.418;8.728;2022-07-03T14:36:16;1.13;;;0.70;;
23561;SDS011;11959;49.418;8.728;2022-07-03T14:38:42;2.00;;;0.70;;
23561;SDS011;11959;49.418;8.728;2022-07-03T14:41:08;0.82;;;0.55;;
23561;SDS011;11959;49.418;8.728;2022-07-03T14:43:34;1.25;;;0.90;;
23561;SDS011;11959;49.418;8.728;2022-07-03T14:45:59;1.63;;;0.75;;
23561;SDS011;11959;49.418;8.728;2022-07-03T14:48:25;1.67;;;0.77;;
23561;SDS011;11959;49.418;8.728;2022-07-03T14:50:51;0.93;;;0.77;;
23561;SDS011;11959;49.418;8.728;2022-07-03T14:53:18;2.05;;;1.05;;
23561;SDS011;11959;49.418;8.728;2022-07-03T14:55:44;1.48;;;0.70;;
23561;SDS011;11959;49.418;8.728;2022-07-03T14:58:15;2.72;;;0.93;;
23561;SDS011;11959;49.418;8.728;2022-07-03T15:00:46;1.85;;;0.80;;
23561;SDS011;11959;49.418;8.728;2022-07-03T15:06:01;1.02;;;0.60;;
23561;SDS011;11959;49.418;8.728;2022-07-03T15:11:02;1.75;;;0.70;;
23561;SDS011;11959;49.418;8.728;2022-07-03T15:13:34;1.75;;;0.73;;
23561;SDS011;11959;49.418;8.728;2022-07-03T15:16:00;1.98;;;0.50;;
23561;SDS011;11959;49.418;8.728;2022-07-03T15:18:27;4.28;;;0.88;;
23561;SDS011;11959;49.418;8.728;2022-07-03T15:20:54;2.42;;;0.70;;
23561;SDS011;11959;49.418;8.728;2022-07-03T15:23:22;1.52;;;0.60;;
23561;SDS011;11959;49.418;8.728;2022-07-03T15:25:48;1.27;;;0.60;;
23561;SDS011;11959;49.418;8.728;2022-07-03T15:28:14;0.93;;;0.68;;
23561;SDS011;11959;49.418;8.728;2022-07-03T15:30:59;2.08;;;1.10;;
23561;SDS011;11959;49.418;8.728;2022-07-03T15:33:26;1.38;;;0.70;;
23561;SDS011;11959;49.418;8.728;2022-07-03T15:35:59;2.25;;;0.70;;
23561;SDS011;11959;49.418;8.728;2022-07-03T15:38:35;3.65;;;0.73;;
23561;SDS011;11959;49.418;8.728;2022-07-03T15:41:06;1.88;;;0.70;;
23561;SDS011;11959;49.418;8.728;2022-07-03T15:49:28;0.90;;;0.70;;
23561;SDS011;11959;49.418;8.728;2022-07-03T15:51:56;1.15;;;0.93;;
23561;SDS011;11959;49.418;8.728;2022-07-03T15:57:17;0.85;;;0.73;;
23561;SDS011;11959;49.418;8.728;2022-07-03T16:00:06;1.27;;;0.75;;
23561;SDS011;11959;49.418;8.728;2022-07-03T16:05:37;2.30;;;0.57;;
23561;SDS011;11959;49.418;8.728;2022-07-03T16:08:08;1.38;;;0.70;;
23561;SDS011;11959;49.418;8.728;2022-07-03T16:10:35;0.60;;;0.60;;
23561;SDS011;11959;49.418;8.728;2022-07-03T16:13:02;1.40;;;0.85;;
23561;SDS011;11959;49.418;8.728;2022-07-03T16:15:33;1.25;;;0.60;;
23561;SDS011;11959;49.418;8.728;2022-07-03T16:18:10;1.35;;;0.63;;
23561;SDS011;11959;49.418;8.728;2022-07-03T16:20:36;1.45;;;0.80;;
23561;SDS011;11959;49.418;8.728;2022-07-03T16:23:03;0.82;;;0.52;;
23561;SDS011;11959;49.418;8.728;2022-07-03T16:25:34;1.73;;;0.55;;
23561;SDS011;11959;49.418;8.728;2022-07-03T16:28:01;2.13;;;0.77;;
23561;SDS011;11959;49.418;8.728;2022-07-03T16:30:29;2.80;;;0.90;;
23561;SDS011;11959;49.418;8.728;2022-07-03T16:32:56;1.17;;;0.68;;
23561;SDS011;11959;49.418;8.728;2022-07-03T16:38:07;2.60;;;0.68;;
23561;SDS011;11959;49.418;8.728;2022-07-03T16:40:35;1.23;;;0.75;;
23561;SDS011;11959;49.418;8.728;2022-07-03T16:43:02;1.45;;;0.60;;